Hauptseite
METAR-TAF:

METAR-TAF

Flughäfen :

Flughafen Hurghada

Hurghada, Ägypten

Breite: 27-09N, Länge: 033-43E, Höhe: 16 m

Beobachtung

Neuester Wetterbericht von vor 1 Stunde und 16 Minuten, um 13:00 UTC
Windstille
Temperatur 38°C
Luftfeuchtigkeit 5%
Luftdruck 1011 hPa
Sichtweite 10 km oder mehr
keine Wolken unter 1500 m und keine Kumulonimbus oder Gewitterwolken

METAR: HEGN 231300Z 00000KT CAVOK 38/M08 Q1011 NOSIG

Zeit: 16:16 (14:16 UTC)

Prognose

Neuester Wetterbericht von vor 3 Stunden und 16 Minuten, um 11:00 UTC
Gültige Prognose vom 23 um 12 UTC bis 24 um 18 UTC
Wind 6 kt aus Nordost
Sichtweite 10 km oder mehr
keine Wolken unter 1500 m und keine Kumulonimbus oder Gewitterwolken

TAF: HEGN 231100Z 2312/2418 05006KT CAVOK

Wetterbeobachtungen und Prognosen von mehr als 4000 Flughäfen (METAR und TAF Bericht).

Die verfügbaren Stationen werden durch gelbe und rote Markierungen auf der Karte dargestellt.

Führen Sie die Maus auf sie, um den Namen der Station zu sehen.

Darauf klicken, um die Beobachtung von Wetterbeobachtungen und Prognosen zu sehen.

Um die Karte zu ändern : klicken Sie auf den grünen Tasten mit einem schwarzen Kreuz Zum Vergrößern, auf den grünen Button mit einem Gedankenstrich zu verkleinern, oder auf die grünen Pfeile für benachbarte Karten.


METAR-TAF: